YNG weather

Youngstown Warren Regional Airport
Youngstown/Warren, Ohio, United States

Public forecast

Using degrees Fahrenheit for public forecast. Weather courtesy of forecast.io.

Current aviation weather report (METAR) for Youngstown Warren Regional Airport

Retrieved 2020/02/26 16:51 UTC (29 minutes ago):

KYNG 261651Z 24005KT 6SM BR OVC007 06/03 A2976 RMK AO2 PRESFR SLP085 T00610033

Aviation forecast (TAF) for Youngstown Warren Regional Airport

Retrieved 2020/02/26 12:30 UTC (5 hours ago):

TAF KYNG 261128Z 2612/2712 05005KT 1 1/2SM BR OVC003 TEMPO 2612/2614 1/4SM -DZ FG VV002 FM261800 21006KT 2SM -RA BR OVC008 FM270100 26008KT 1 1/2SM -RASN BR OVC003 FM270800 28015G25KT 1 1/2SM -SN BR OVC008 FM271000 28015G25KT P6SM VCSH OVC008